createdAt,value
2023-05-19T00:00:59.002Z,11.15
2023-05-19T00:03:27.246Z,11.15
2023-05-19T00:05:55.678Z,11.14
2023-05-19T00:08:25.425Z,10.38
2023-05-19T00:10:53.580Z,10.35
2023-05-19T00:13:22.662Z,10.42
2023-05-19T00:15:50.978Z,10.52
2023-05-19T00:18:18.559Z,10.59
2023-05-19T00:20:46.454Z,10.63
2023-05-19T00:23:13.988Z,10.30
2023-05-19T00:25:43.023Z,10.82
2023-05-19T00:28:10.696Z,10.90
2023-05-19T00:30:38.207Z,11.03
2023-05-19T00:33:05.745Z,10.46
2023-05-19T00:35:33.357Z,10.85
2023-05-19T00:38:00.868Z,10.72
2023-05-19T00:40:31.163Z,10.57
2023-05-19T00:43:00.500Z,9.78
2023-05-19T00:45:28.691Z,10.44
2023-05-19T00:47:56.343Z,10.88
2023-05-19T00:50:25.150Z,10.68
2023-05-19T00:52:52.720Z,10.48
2023-05-19T00:55:22.161Z,10.85
2023-05-19T00:57:50.854Z,10.90
2023-05-19T01:00:20.009Z,11.06
2023-05-19T01:02:47.901Z,10.97
2023-05-19T01:05:15.434Z,10.95
2023-05-19T01:07:43.607Z,9.59
2023-05-19T01:10:11.960Z,10.53
2023-05-19T01:12:40.702Z,10.66
2023-05-19T01:15:09.923Z,10.67
2023-05-19T01:17:46.450Z,10.90
2023-05-19T01:20:21.846Z,10.58
2023-05-19T01:23:21.403Z,10.49
2023-05-19T01:26:11.756Z,10.54
2023-05-19T01:29:00.829Z,10.98
2023-05-19T01:31:30.200Z,10.61
2023-05-19T01:33:58.200Z,10.84
2023-05-19T01:36:27.801Z,10.92
2023-05-19T01:38:58.090Z,10.57
2023-05-19T01:41:28.356Z,10.84
2023-05-19T01:43:57.858Z,10.89
2023-05-19T01:46:25.921Z,10.27
2023-05-19T01:48:56.705Z,10.69
2023-05-19T01:51:24.332Z,10.44
2023-05-19T01:53:52.030Z,9.86
2023-05-19T01:56:32.750Z,10.05
2023-05-19T01:59:02.990Z,10.13
2023-05-19T02:01:38.832Z,10.62
2023-05-19T02:04:19.141Z,9.28
2023-05-19T02:06:51.744Z,9.74
2023-05-19T02:09:26.407Z,10.04
2023-05-19T02:11:55.787Z,9.81
2023-05-19T02:14:30.615Z,10.42
2023-05-19T02:16:58.971Z,10.53
2023-05-19T02:19:33.238Z,10.76
2023-05-19T02:22:00.932Z,10.73
2023-05-19T02:24:28.416Z,10.61
2023-05-19T02:26:56.046Z,10.46
2023-05-19T02:29:23.586Z,9.19
2023-05-19T02:31:51.378Z,10.11
2023-05-19T02:34:18.940Z,10.43
2023-05-19T02:36:49.672Z,9.84
2023-05-19T02:39:17.510Z,9.85
2023-05-19T02:41:45.069Z,9.13
2023-05-19T02:44:12.561Z,9.33
2023-05-19T02:46:40.133Z,9.13
2023-05-19T02:49:08.118Z,9.28
2023-05-19T02:51:35.607Z,9.47
2023-05-19T02:54:04.481Z,10.12
2023-05-19T02:56:32.013Z,9.91
2023-05-19T02:58:59.506Z,9.70
2023-05-19T03:01:27.004Z,9.54
2023-05-19T03:03:54.567Z,9.99
2023-05-19T03:06:23.466Z,10.15
2023-05-19T03:08:51.003Z,9.84
2023-05-19T03:11:19.906Z,9.58
2023-05-19T03:13:47.422Z,10.27
2023-05-19T03:16:14.976Z,9.50
2023-05-19T03:18:42.711Z,9.82
2023-05-19T03:21:10.628Z,10.02
2023-05-19T03:23:38.102Z,9.98
2023-05-19T03:26:06.125Z,9.93
2023-05-19T03:28:34.943Z,10.26
2023-05-19T03:31:02.517Z,10.40
2023-05-19T03:33:30.528Z,10.56
2023-05-19T03:35:58.936Z,10.11
2023-05-19T03:38:26.642Z,10.35
2023-05-19T03:40:54.547Z,10.24
2023-05-19T03:43:22.054Z,10.05
2023-05-19T03:45:50.995Z,9.67
2023-05-19T03:48:21.080Z,10.15
2023-05-19T03:50:49.366Z,10.01
2023-05-19T03:53:16.914Z,10.02
2023-05-19T03:55:45.598Z,10.03
2023-05-19T03:58:14.485Z,10.30
2023-05-19T04:00:42.066Z,10.02
2023-05-19T04:03:11.025Z,10.20
2023-05-19T04:05:38.646Z,10.08
2023-05-19T04:08:06.654Z,10.42
2023-05-19T04:10:34.498Z,10.27
2023-05-19T04:13:02.139Z,10.03
2023-05-19T04:15:30.166Z,10.08
2023-05-19T04:17:57.755Z,10.18
2023-05-19T04:20:26.623Z,10.25
2023-05-19T04:22:54.108Z,10.21
2023-05-19T04:25:21.613Z,10.43
2023-05-19T04:27:49.190Z,10.37
2023-05-19T04:30:21.951Z,10.63
2023-05-19T04:32:50.375Z,10.59
2023-05-19T04:35:18.275Z,10.47
2023-05-19T04:37:47.211Z,10.42
2023-05-19T04:40:15.593Z,10.34
2023-05-19T04:42:45.744Z,10.18
2023-05-19T04:45:13.793Z,10.67
2023-05-19T04:47:41.842Z,10.72
2023-05-19T04:50:11.038Z,10.03
2023-05-19T04:52:38.686Z,10.00
2023-05-19T04:55:08.200Z,10.18
2023-05-19T04:57:35.697Z,10.49
2023-05-19T05:00:04.147Z,10.16
2023-05-19T05:02:32.158Z,9.94
2023-05-19T05:04:59.668Z,10.04
2023-05-19T05:07:28.030Z,10.44
2023-05-19T05:09:56.543Z,10.46
2023-05-19T05:12:26.195Z,10.62
2023-05-19T05:14:54.250Z,10.79
2023-05-19T05:17:22.401Z,10.98
2023-05-19T05:19:50.610Z,11.14
2023-05-19T05:22:18.657Z,10.93
2023-05-19T05:24:46.914Z,11.24
2023-05-19T05:27:14.496Z,11.09
2023-05-19T05:29:43.535Z,11.27
2023-05-19T05:32:11.038Z,10.95
2023-05-19T05:34:40.194Z,11.11
2023-05-19T05:37:07.717Z,11.17
2023-05-19T05:39:35.488Z,11.04
2023-05-19T05:42:03.015Z,11.13
2023-05-19T05:44:30.667Z,10.64
2023-05-19T05:47:00.148Z,10.32
2023-05-19T05:49:28.135Z,10.30
2023-05-19T05:52:05.692Z,10.19
2023-05-19T05:54:34.742Z,10.56
2023-05-19T05:57:03.354Z,10.56
2023-05-19T05:59:30.870Z,11.11
2023-05-19T06:01:59.744Z,11.47
2023-05-19T06:04:27.298Z,11.11
2023-05-19T06:06:56.923Z,11.56
2023-05-19T06:09:24.396Z,11.43
2023-05-19T06:11:51.917Z,11.26
2023-05-19T06:14:19.509Z,11.13
2023-05-19T06:16:47.997Z,11.05
2023-05-19T06:19:17.105Z,11.12
2023-05-19T06:21:44.646Z,11.49
2023-05-19T06:24:12.863Z,11.55
2023-05-19T06:26:40.343Z,12.13
2023-05-19T06:29:07.845Z,11.66
2023-05-19T06:31:35.442Z,11.77
2023-05-19T06:34:03.014Z,11.68
2023-05-19T06:36:32.315Z,11.38
2023-05-19T06:39:01.307Z,11.52
2023-05-19T06:41:30.167Z,11.68
2023-05-19T06:43:57.657Z,11.91
2023-05-19T06:46:25.265Z,11.73
2023-05-19T06:48:52.763Z,11.14
2023-05-19T06:51:21.710Z,11.44
2023-05-19T06:53:50.583Z,11.63
2023-05-19T06:56:18.934Z,11.79
2023-05-19T06:58:46.975Z,11.56
2023-05-19T07:01:14.539Z,11.72
2023-05-19T07:03:42.129Z,11.73
2023-05-19T07:06:09.822Z,12.18
2023-05-19T07:08:37.933Z,12.31
2023-05-19T07:11:06.900Z,12.69
2023-05-19T07:13:34.430Z,12.55
2023-05-19T07:16:01.996Z,12.46
2023-05-19T07:18:31.699Z,12.61
2023-05-19T07:20:59.319Z,12.87
2023-05-19T07:23:26.869Z,12.76
2023-05-19T07:25:56.004Z,12.92
2023-05-19T07:28:25.013Z,12.93
2023-05-19T07:30:53.151Z,13.01
2023-05-19T07:33:20.692Z,12.99
2023-05-19T07:35:49.045Z,12.76
2023-05-19T07:38:16.624Z,12.89
2023-05-19T07:40:44.128Z,12.92
2023-05-19T07:43:11.768Z,12.98
2023-05-19T07:45:41.116Z,13.01
2023-05-19T07:48:08.853Z,13.02
2023-05-19T07:50:36.994Z,13.59
2023-05-19T07:53:04.582Z,13.43
2023-05-19T07:55:32.090Z,13.32
2023-05-19T07:57:59.642Z,12.80
2023-05-19T08:00:27.495Z,13.01
2023-05-19T08:02:56.923Z,13.18
2023-05-19T08:05:25.575Z,13.52
2023-05-19T08:07:53.153Z,13.29
2023-05-19T08:10:20.651Z,13.20
2023-05-19T08:12:48.332Z,13.65
2023-05-19T08:15:16.514Z,13.61
2023-05-19T08:17:44.052Z,13.52
2023-05-19T08:20:13.615Z,13.38
2023-05-19T08:22:41.466Z,13.35
2023-05-19T08:25:09.450Z,13.52
2023-05-19T08:27:37.254Z,13.58
2023-05-19T08:30:05.482Z,13.79
2023-05-19T08:32:33.040Z,13.58
2023-05-19T08:35:00.560Z,13.45
2023-05-19T08:37:29.818Z,13.35
2023-05-19T08:39:58.327Z,13.43
2023-05-19T08:42:25.892Z,13.42
2023-05-19T08:44:53.539Z,13.56
2023-05-19T08:47:21.202Z,13.78
2023-05-19T08:49:53.411Z,13.78
2023-05-19T08:52:28.655Z,13.63
2023-05-19T08:55:05.841Z,13.72
2023-05-19T08:57:34.076Z,13.51
2023-05-19T09:00:02.050Z,13.54
2023-05-19T09:02:30.396Z,13.45
2023-05-19T09:04:57.972Z,13.59
2023-05-19T09:07:26.621Z,13.74
2023-05-19T09:09:54.226Z,13.72
2023-05-19T09:12:23.604Z,13.74
2023-05-19T09:14:51.499Z,13.87
2023-05-19T09:17:19.202Z,14.03
2023-05-19T09:19:48.080Z,14.06
2023-05-19T09:22:19.043Z,14.12
2023-05-19T09:24:46.607Z,14.14
2023-05-19T09:27:16.295Z,14.03
2023-05-19T09:29:45.506Z,14.03
2023-05-19T09:32:13.162Z,14.13
2023-05-19T09:34:42.682Z,14.02
2023-05-19T09:37:10.214Z,13.91
2023-05-19T09:39:39.658Z,13.74
2023-05-19T09:42:07.235Z,13.80
2023-05-19T09:44:36.412Z,13.86
2023-05-19T09:47:05.578Z,13.87
2023-05-19T09:49:33.827Z,13.77
2023-05-19T09:52:04.206Z,13.93
2023-05-19T09:54:32.428Z,13.74
2023-05-19T09:57:00.292Z,13.85
2023-05-19T09:59:32.578Z,13.97
2023-05-19T10:02:02.874Z,14.16
2023-05-19T10:04:32.456Z,14.04
2023-05-19T10:07:00.423Z,14.40
2023-05-19T10:09:29.386Z,14.29
2023-05-19T10:11:58.703Z,14.45
2023-05-19T10:14:27.439Z,14.46
2023-05-19T10:16:56.505Z,14.45
2023-05-19T10:19:26.232Z,14.69
2023-05-19T10:21:55.941Z,14.93
2023-05-19T10:24:23.511Z,14.94
2023-05-19T10:26:57.023Z,14.60
2023-05-19T10:29:29.614Z,14.68
2023-05-19T10:31:58.951Z,14.96
2023-05-19T10:34:53.386Z,14.79
2023-05-19T10:37:33.157Z,14.68
2023-05-19T10:40:01.469Z,14.75
2023-05-19T10:42:34.787Z,14.83
2023-05-19T10:45:14.334Z,15.02
2023-05-19T10:47:42.231Z,15.12
2023-05-19T10:50:11.113Z,14.99
2023-05-19T10:52:41.192Z,14.61
2023-05-19T10:55:10.037Z,14.70
2023-05-19T10:57:37.674Z,14.72
2023-05-19T11:00:11.606Z,14.71
2023-05-19T11:02:41.764Z,14.92
2023-05-19T11:05:10.556Z,15.26
2023-05-19T11:07:38.262Z,15.33
2023-05-19T11:10:11.045Z,15.17
2023-05-19T11:12:43.395Z,15.10
2023-05-19T11:15:15.547Z,15.02
2023-05-19T11:17:46.162Z,15.00
2023-05-19T11:20:23.876Z,14.97
2023-05-19T11:23:09.889Z,14.89
2023-05-19T11:25:46.929Z,15.02
2023-05-19T11:28:17.527Z,15.13
2023-05-19T11:30:46.797Z,15.35
2023-05-19T11:33:14.804Z,15.18
2023-05-19T11:35:43.235Z,15.18
2023-05-19T11:38:12.384Z,15.33
2023-05-19T11:40:40.378Z,15.65
2023-05-19T11:43:09.202Z,15.97
2023-05-19T11:45:37.472Z,15.98
2023-05-19T11:48:06.926Z,16.16
2023-05-19T11:50:35.217Z,15.91
2023-05-19T11:53:02.881Z,16.14
2023-05-19T11:55:31.249Z,16.12
2023-05-19T12:00:37.089Z,16.13
2023-05-19T12:03:05.518Z,16.55
2023-05-19T12:05:38.030Z,17.06
2023-05-19T12:08:08.748Z,17.45
2023-05-19T12:10:39.950Z,16.61
2023-05-19T12:13:09.397Z,16.18
2023-05-19T12:15:39.508Z,16.23
2023-05-19T12:18:07.489Z,16.50
2023-05-19T12:20:36.585Z,16.41
2023-05-19T12:23:04.811Z,16.36
2023-05-19T12:25:33.075Z,16.48
2023-05-19T12:28:02.769Z,16.56
2023-05-19T12:30:32.201Z,16.52
2023-05-19T12:33:03.357Z,16.73
2023-05-19T12:35:33.201Z,17.01
2023-05-19T12:38:04.476Z,16.80
2023-05-19T12:40:33.021Z,16.57
2023-05-19T12:43:02.783Z,16.65
2023-05-19T12:45:35.360Z,16.77
2023-05-19T12:48:06.308Z,17.10
2023-05-19T12:50:35.024Z,17.23
2023-05-19T12:53:02.914Z,17.48
2023-05-19T12:55:30.951Z,17.77
2023-05-19T12:57:58.730Z,17.57
2023-05-19T13:00:28.993Z,17.66
2023-05-19T13:03:02.052Z,17.36
2023-05-19T13:05:33.552Z,17.36
2023-05-19T13:08:03.313Z,17.13
2023-05-19T13:10:31.504Z,17.22
2023-05-19T13:13:00.544Z,17.32
2023-05-19T13:15:31.641Z,17.12
2023-05-19T13:17:59.431Z,17.13
2023-05-19T13:20:30.389Z,17.52
2023-05-19T13:23:00.292Z,17.64
2023-05-19T13:25:28.738Z,17.43
2023-05-19T13:28:05.182Z,17.50
2023-05-19T13:30:35.623Z,17.47
2023-05-19T13:33:03.665Z,17.90
2023-05-19T13:35:36.719Z,17.51
2023-05-19T13:38:06.712Z,17.19
2023-05-19T13:40:34.740Z,16.97
2023-05-19T13:43:03.000Z,17.15
2023-05-19T13:45:30.964Z,17.52
2023-05-19T13:47:58.721Z,17.21
2023-05-19T13:50:26.459Z,17.19
2023-05-19T13:52:54.359Z,17.31
2023-05-19T13:55:23.582Z,17.54
2023-05-19T13:57:51.101Z,17.62
2023-05-19T14:00:20.029Z,17.58
2023-05-19T14:02:47.693Z,17.67
2023-05-19T14:05:15.325Z,17.34
2023-05-19T14:07:42.921Z,17.27
2023-05-19T14:10:11.091Z,17.64
2023-05-19T14:12:55.039Z,17.60
2023-05-19T14:15:27.410Z,17.44
2023-05-19T14:17:55.020Z,17.35
2023-05-19T14:20:22.762Z,17.27
2023-05-19T14:22:50.301Z,17.26
2023-05-19T14:25:17.993Z,17.33
2023-05-19T14:27:46.864Z,17.23
2023-05-19T14:30:14.678Z,17.31
2023-05-19T14:32:42.258Z,17.33
2023-05-19T14:35:10.428Z,17.40
2023-05-19T14:37:37.917Z,17.50
2023-05-19T14:40:06.779Z,17.61
2023-05-19T14:42:34.296Z,17.57
2023-05-19T14:45:03.140Z,17.65
2023-05-19T14:47:30.778Z,17.89
2023-05-19T14:49:58.329Z,18.02
2023-05-19T14:52:26.153Z,17.99
2023-05-19T14:54:54.050Z,17.91
2023-05-19T14:57:21.539Z,17.85
2023-05-19T14:59:49.224Z,17.87
2023-05-19T15:02:18.102Z,17.88
2023-05-19T15:04:45.730Z,17.98
2023-05-19T15:07:13.271Z,17.87
2023-05-19T15:09:41.005Z,17.97
2023-05-19T15:12:08.500Z,17.80
2023-05-19T15:14:36.009Z,17.87
2023-05-19T15:17:03.610Z,17.60
2023-05-19T15:19:32.712Z,17.70
2023-05-19T15:22:00.224Z,17.80
2023-05-19T15:24:28.093Z,17.83
2023-05-19T15:26:56.386Z,17.77
2023-05-19T15:29:23.863Z,17.77
2023-05-19T15:31:51.873Z,17.84
2023-05-19T15:34:19.722Z,17.75
2023-05-19T15:36:48.574Z,17.80
2023-05-19T15:39:16.136Z,17.84
2023-05-19T15:41:43.671Z,17.98
2023-05-19T15:44:11.234Z,18.12
2023-05-19T15:46:38.789Z,17.90
2023-05-19T15:49:06.323Z,17.92
2023-05-19T15:51:33.905Z,17.93
2023-05-19T15:54:02.840Z,17.75
2023-05-19T15:56:30.372Z,17.78
2023-05-19T15:58:57.860Z,17.78
2023-05-19T16:01:25.524Z,17.65
2023-05-19T16:03:53.407Z,17.60
2023-05-19T16:06:21.052Z,17.60
2023-05-19T16:08:48.569Z,17.57
2023-05-19T16:11:18.179Z,17.62
2023-05-19T16:13:45.678Z,17.65
2023-05-19T16:16:13.269Z,17.59
2023-05-19T16:18:40.873Z,17.35
2023-05-19T16:21:08.421Z,17.35
2023-05-19T16:23:35.896Z,17.32
2023-05-19T16:26:03.483Z,17.28
2023-05-19T16:28:32.382Z,17.21
2023-05-19T16:31:00.148Z,17.25
2023-05-19T16:33:28.210Z,17.21
2023-05-19T16:35:56.064Z,17.16
2023-05-19T16:38:23.653Z,17.26
2023-05-19T16:40:51.146Z,17.37
2023-05-19T16:43:18.656Z,17.25
2023-05-19T16:45:47.622Z,17.21
2023-05-19T16:48:15.223Z,17.04
2023-05-19T16:50:42.812Z,17.10
2023-05-19T16:53:10.409Z,17.06
2023-05-19T16:55:37.875Z,16.98
2023-05-19T16:58:05.405Z,16.94
2023-05-19T17:00:33.104Z,16.94
2023-05-19T17:03:02.185Z,16.94
2023-05-19T17:05:29.765Z,16.94
2023-05-19T17:07:57.277Z,16.81
2023-05-19T17:10:24.769Z,16.71
2023-05-19T17:12:52.265Z,16.66
2023-05-19T17:15:19.755Z,16.68
2023-05-19T17:17:47.259Z,16.64
2023-05-19T17:20:16.380Z,16.50
2023-05-19T17:22:43.921Z,16.41
2023-05-19T17:25:11.615Z,16.41
2023-05-19T17:27:39.208Z,16.40
2023-05-19T17:30:08.656Z,16.35
2023-05-19T17:32:39.386Z,16.13
2023-05-19T17:35:08.322Z,16.23
2023-05-19T17:37:37.177Z,16.23
2023-05-19T17:40:05.377Z,16.27
2023-05-19T17:42:32.717Z,16.16
2023-05-19T17:45:00.224Z,16.13
2023-05-19T17:47:27.772Z,16.15
2023-05-19T17:49:55.300Z,16.18
2023-05-19T17:52:23.813Z,16.25
2023-05-19T17:54:53.656Z,16.22
2023-05-19T17:57:25.721Z,16.21
2023-05-19T17:59:53.951Z,16.20
2023-05-19T18:02:21.615Z,16.20
2023-05-19T18:04:49.704Z,16.18
2023-05-19T18:07:18.899Z,16.13
2023-05-19T18:09:47.135Z,16.13
2023-05-19T18:12:16.167Z,16.15
2023-05-19T18:14:43.730Z,16.10
2023-05-19T18:17:11.300Z,16.09
2023-05-19T18:19:38.797Z,16.00
2023-05-19T18:22:06.291Z,16.00
2023-05-19T18:24:33.796Z,16.03
2023-05-19T18:27:01.582Z,15.97
2023-05-19T18:29:30.551Z,15.97
2023-05-19T18:31:58.041Z,15.89
2023-05-19T18:34:27.547Z,15.87
2023-05-19T18:36:55.055Z,15.89
2023-05-19T18:39:22.576Z,15.88
2023-05-19T18:41:50.702Z,15.83
2023-05-19T18:44:18.294Z,15.82
2023-05-19T18:46:47.152Z,15.77
2023-05-19T18:49:14.674Z,15.67
2023-05-19T18:51:42.448Z,15.74
2023-05-19T18:54:10.030Z,15.73
2023-05-19T18:56:37.587Z,15.68
2023-05-19T18:59:05.113Z,15.61
2023-05-19T19:01:32.768Z,15.59
2023-05-19T19:04:02.825Z,15.54
2023-05-19T19:06:31.125Z,15.57
2023-05-19T19:08:58.665Z,15.56
2023-05-19T19:11:26.351Z,15.49
2023-05-19T19:13:55.541Z,15.45
2023-05-19T19:16:23.325Z,15.48
2023-05-19T19:18:51.073Z,15.34
2023-05-19T19:21:22.165Z,15.36
2023-05-19T19:23:49.705Z,15.35
2023-05-19T19:26:17.428Z,15.39
2023-05-19T19:28:45.233Z,15.22
2023-05-19T19:31:12.736Z,15.25
2023-05-19T19:33:43.187Z,15.31
2023-05-19T19:36:11.139Z,15.10
2023-05-19T19:38:39.959Z,15.19
2023-05-19T19:41:07.480Z,15.19
2023-05-19T19:43:35.292Z,15.13
2023-05-19T19:46:06.962Z,14.98
2023-05-19T19:48:34.523Z,14.94
2023-05-19T19:51:02.071Z,14.96
2023-05-19T19:53:32.180Z,15.05
2023-05-19T19:56:01.966Z,15.03
2023-05-19T19:58:30.155Z,14.84
2023-05-19T20:00:58.638Z,14.80
2023-05-19T20:03:26.934Z,14.86
2023-05-19T20:05:56.262Z,14.71
2023-05-19T20:08:27.379Z,14.92
2023-05-19T20:10:55.060Z,14.75
2023-05-19T20:13:24.276Z,14.64
2023-05-19T20:15:51.843Z,14.57
2023-05-19T20:18:19.363Z,14.54
2023-05-19T20:20:47.100Z,14.51
2023-05-19T20:23:16.137Z,14.62
2023-05-19T20:25:57.923Z,14.58
2023-05-19T20:28:31.602Z,14.50
2023-05-19T20:30:59.137Z,14.54
2023-05-19T20:33:26.703Z,14.53
2023-05-19T20:35:56.590Z,14.51
2023-05-19T20:38:24.128Z,14.41
2023-05-19T20:40:51.646Z,14.32
2023-05-19T20:43:19.251Z,14.46
2023-05-19T20:45:48.465Z,14.09
2023-05-19T20:48:16.467Z,14.45
2023-05-19T20:50:44.092Z,14.43
2023-05-19T20:53:11.658Z,13.92
2023-05-19T20:55:39.564Z,14.11
2023-05-19T20:58:08.449Z,13.89
2023-05-19T21:00:36.252Z,13.93
2023-05-19T21:03:05.857Z,14.18
2023-05-19T21:05:33.680Z,14.17
2023-05-19T21:08:01.256Z,14.22
2023-05-19T21:10:28.812Z,14.25
2023-05-19T21:12:58.770Z,14.42
2023-05-19T21:15:27.107Z,14.23
2023-05-19T21:17:54.644Z,14.33
2023-05-19T21:20:23.733Z,13.89
2023-05-19T21:22:51.318Z,14.27
2023-05-19T21:25:19.112Z,13.57
2023-05-19T21:27:47.406Z,13.56
2023-05-19T21:30:15.108Z,13.78
2023-05-19T21:32:42.620Z,13.80
2023-05-19T21:35:10.280Z,13.83
2023-05-19T21:37:39.157Z,14.07
2023-05-19T21:40:07.935Z,14.09
2023-05-19T21:42:36.001Z,13.85
2023-05-19T21:45:03.667Z,14.18
2023-05-19T21:47:31.330Z,13.36
2023-05-19T21:49:58.882Z,13.61
2023-05-19T21:52:26.471Z,13.08
2023-05-19T21:54:56.076Z,13.53
2023-05-19T21:57:23.636Z,13.74
2023-05-19T21:59:51.111Z,13.68
2023-05-19T22:02:18.681Z,13.99
2023-05-19T22:04:46.319Z,14.00
2023-05-19T22:07:13.872Z,14.07
2023-05-19T22:09:41.406Z,14.11
2023-05-19T22:12:10.414Z,13.83
2023-05-19T22:14:37.879Z,14.06
2023-05-19T22:17:05.792Z,13.45
2023-05-19T22:19:33.408Z,13.46
2023-05-19T22:22:10.233Z,13.63
2023-05-19T22:24:41.216Z,14.01
2023-05-19T22:27:10.416Z,13.97
2023-05-19T22:29:38.672Z,13.83
2023-05-19T22:32:07.581Z,13.42
2023-05-19T22:34:35.187Z,13.59
2023-05-19T22:37:02.792Z,13.21
2023-05-19T22:39:30.295Z,13.32
2023-05-19T22:41:57.878Z,13.21
2023-05-19T22:44:26.846Z,13.34
2023-05-19T22:46:54.343Z,13.27
2023-05-19T22:49:22.751Z,13.48
2023-05-19T22:51:50.433Z,13.20
2023-05-19T22:54:18.173Z,13.12
2023-05-19T22:56:48.328Z,13.21
2023-05-19T22:59:17.542Z,13.21
2023-05-19T23:01:47.026Z,13.34
2023-05-19T23:04:15.071Z,13.11
2023-05-19T23:06:42.678Z,13.30
2023-05-19T23:09:10.256Z,13.57
2023-05-19T23:11:37.755Z,13.35
2023-05-19T23:14:05.529Z,12.94
2023-05-19T23:16:33.298Z,13.53
2023-05-19T23:19:02.385Z,13.47
2023-05-19T23:21:31.239Z,13.75
2023-05-19T23:23:59.364Z,13.56
2023-05-19T23:26:27.309Z,13.32
2023-05-19T23:28:54.834Z,13.03
2023-05-19T23:31:22.340Z,13.25
2023-05-19T23:33:50.156Z,13.29
2023-05-19T23:36:19.190Z,13.41
2023-05-19T23:38:46.742Z,13.33
2023-05-19T23:41:14.693Z,13.69
2023-05-19T23:43:42.187Z,13.79
2023-05-19T23:46:12.070Z,13.29
2023-05-19T23:48:39.835Z,13.33
2023-05-19T23:51:07.693Z,13.36
2023-05-19T23:53:36.581Z,13.59
2023-05-19T23:56:04.035Z,13.50
2023-05-19T23:58:31.665Z,13.68
